createdAt,value
2023-01-09T00:00:52.524Z,0.28
2023-01-09T00:11:00.297Z,0.14
2023-01-09T00:21:04.851Z,0.22
2023-01-09T00:31:08.649Z,0.38
2023-01-09T00:41:15.945Z,0.29
2023-01-09T00:51:20.412Z,0.16
2023-01-09T01:01:22.826Z,0.45
2023-01-09T01:11:25.161Z,0.63
2023-01-09T01:21:27.669Z,0.82
2023-01-09T01:31:29.848Z,0.86
2023-01-09T01:41:32.118Z,0.95
2023-01-09T01:51:39.098Z,0.91
2023-01-09T02:01:44.447Z,1.13
2023-01-09T02:11:48.880Z,1.09
2023-01-09T02:22:36.018Z,0.90
2023-01-09T02:32:43.818Z,0.90
2023-01-09T02:42:48.458Z,0.65
2023-01-09T02:52:59.402Z,0.54
2023-01-09T03:03:10.206Z,0.49
2023-01-09T03:13:18.473Z,0.81
2023-01-09T03:23:20.727Z,0.79
2023-01-09T03:33:22.960Z,0.90
2023-01-09T03:43:25.139Z,0.86
2023-01-09T03:53:28.640Z,0.93
2023-01-09T04:03:30.983Z,0.92
2023-01-09T04:13:33.346Z,1.11
2023-01-09T04:23:35.534Z,1.31
2023-01-09T04:33:37.759Z,1.36
2023-01-09T04:43:42.319Z,1.52
2023-01-09T04:53:44.523Z,1.63
2023-01-09T05:03:46.790Z,1.99
2023-01-09T05:13:48.953Z,3.52
2023-01-09T05:23:51.207Z,3.57
2023-01-09T05:33:53.763Z,4.13
2023-01-09T05:43:55.966Z,4.71
2023-01-09T05:53:59.184Z,4.82
2023-01-09T06:04:01.438Z,4.66
2023-01-09T06:14:03.675Z,4.26
2023-01-09T06:24:06.422Z,4.42
2023-01-09T06:34:09.072Z,4.64
2023-01-09T06:44:11.416Z,4.58
2023-01-09T06:54:13.685Z,4.60
2023-01-09T07:04:17.614Z,4.54
2023-01-09T07:14:20.117Z,4.48
2023-01-09T07:24:22.333Z,4.43
2023-01-09T07:34:24.546Z,4.50
2023-01-09T07:44:27.144Z,4.52
2023-01-09T07:54:29.410Z,4.32
2023-01-09T08:04:31.838Z,4.59
2023-01-09T08:14:34.297Z,4.88
2023-01-09T08:24:36.861Z,5.24
2023-01-09T08:34:39.099Z,5.62
2023-01-09T08:45:00.029Z,5.63
2023-01-09T08:55:02.241Z,5.59
2023-01-09T09:05:04.772Z,5.89
2023-01-09T09:15:13.636Z,5.92
2023-01-09T09:25:17.071Z,5.98
2023-01-09T09:35:23.797Z,6.08
2023-01-09T09:45:59.535Z,6.18
2023-01-09T09:56:02.826Z,6.23
2023-01-09T10:06:10.941Z,6.39
2023-01-09T10:16:35.534Z,6.86
2023-01-09T10:26:46.265Z,6.99
2023-01-09T10:37:00.194Z,7.19
2023-01-09T10:47:09.022Z,7.69
2023-01-09T10:57:16.388Z,7.42
2023-01-09T11:07:20.910Z,7.03
2023-01-09T11:17:27.174Z,6.77
2023-01-09T11:27:29.523Z,6.84
2023-01-09T11:37:32.796Z,6.72
2023-01-09T11:47:41.011Z,6.78
2023-01-09T11:57:43.292Z,6.89
2023-01-09T12:07:57.791Z,6.73
2023-01-09T12:18:11.655Z,6.74
2023-01-09T12:28:13.808Z,6.75
2023-01-09T12:38:37.282Z,6.57
2023-01-09T12:49:09.341Z,6.68
2023-01-09T12:59:33.228Z,6.60
2023-01-09T13:09:53.478Z,6.46
2023-01-09T13:19:55.857Z,6.22
2023-01-09T13:30:09.000Z,6.30
2023-01-09T13:40:20.064Z,6.08
2023-01-09T13:50:26.573Z,5.73
2023-01-09T14:00:28.803Z,5.67
2023-01-09T14:10:39.777Z,5.49
2023-01-09T14:20:45.993Z,5.22
2023-01-09T14:30:54.447Z,4.97
2023-01-09T14:41:17.015Z,4.75
2023-01-09T14:51:22.268Z,4.71
2023-01-09T15:01:27.490Z,4.82
2023-01-09T15:11:31.331Z,4.73
2023-01-09T15:21:33.678Z,4.52
2023-01-09T15:31:39.133Z,4.22
2023-01-09T15:42:00.102Z,3.96
2023-01-09T15:52:03.182Z,3.64
2023-01-09T16:02:31.139Z,3.55
2023-01-09T16:12:33.553Z,3.53
2023-01-09T16:22:37.021Z,3.50
2023-01-09T16:32:51.554Z,3.50
2023-01-09T16:43:01.557Z,3.30
2023-01-09T16:53:14.590Z,2.84
2023-01-09T17:03:17.775Z,2.70
2023-01-09T17:13:20.497Z,2.62
2023-01-09T17:23:25.931Z,2.55
2023-01-09T17:33:28.457Z,2.62
2023-01-09T17:43:32.237Z,2.69
2023-01-09T17:53:34.449Z,2.48
2023-01-09T18:03:36.696Z,2.59
2023-01-09T18:13:38.940Z,2.57
2023-01-09T18:23:41.234Z,2.48
2023-01-09T18:33:46.880Z,2.50
2023-01-09T18:43:54.044Z,2.25
2023-01-09T18:53:57.321Z,2.20
2023-01-09T19:04:00.123Z,2.14
2023-01-09T19:14:02.642Z,2.03
2023-01-09T19:24:05.295Z,1.91
2023-01-09T19:34:08.044Z,1.89
2023-01-09T19:44:11.000Z,1.93
2023-01-09T19:54:13.250Z,2.19
2023-01-09T20:04:17.475Z,2.56
2023-01-09T20:14:20.973Z,2.86
2023-01-09T20:24:23.271Z,2.98
2023-01-09T20:34:25.485Z,3.14
2023-01-09T20:44:27.692Z,3.38
2023-01-09T20:54:29.944Z,3.36
2023-01-09T21:04:32.313Z,3.52
2023-01-09T21:14:36.010Z,3.63
2023-01-09T21:24:38.368Z,3.55
2023-01-09T21:40:13.905Z,3.92
2023-01-09T21:50:17.462Z,3.58
2023-01-09T22:00:20.152Z,3.72
2023-01-09T22:10:22.580Z,3.89
2023-01-09T22:20:24.866Z,3.88
2023-01-09T22:30:27.172Z,3.35
2023-01-09T22:40:29.417Z,3.01
2023-01-09T22:50:31.628Z,2.93
2023-01-09T23:00:33.911Z,2.93
2023-01-09T23:10:36.216Z,3.04
2023-01-09T23:20:38.516Z,2.81
2023-01-09T23:30:40.765Z,2.75
2023-01-09T23:40:43.183Z,3.02
2023-01-09T23:50:53.297Z,3.18
